Time;durP1;ratioP1;P1;durP2;ratioP2;P2;SDS_P1;SDS_P2;PMS_P1;PMS_P2;Temp;Humidity;BMP_temperature;BMP_pressure;BME280_temperature;BME280_humidity;BME280_pressure;Samples;Min_cycle;Max_cycle;Signal;HPM_P1;HPM_P2
2021/08/13 00:00:11;;;;;;;8.32;5.22;;;26.30;58.90;;;;;;9996712;28;20056;-66
2021/08/13 00:05:02;;;;;;;8.27;5.28;;;26.20;59.50;;;;;;9996173;28;20516;-68
2021/08/13 00:09:53;;;;;;;9.23;4.97;;;26.20;59.60;;;;;;9992468;28;20026;-75
2021/08/13 00:14:43;;;;;;;8.93;5.15;;;26.10;60.10;;;;;;9996540;28;20050;-70
2021/08/13 00:19:34;;;;;;;7.03;4.65;;;25.90;60.70;;;;;;9994601;28;20049;-67
2021/08/13 00:24:24;;;;;;;6.82;5.10;;;26.00;60.90;;;;;;9995330;28;20038;-66
2021/08/13 00:29:15;;;;;;;10.82;6.30;;;26.10;61.20;;;;;;9993360;28;20019;-70
2021/08/13 00:34:06;;;;;;;9.93;5.97;;;26.10;61.40;;;;;;10015776;28;20446;-65
2021/08/13 00:38:57;;;;;;;10.35;5.32;;;26.00;61.60;;;;;;9983909;28;20021;-69
2021/08/13 00:43:48;;;;;;;7.60;5.03;;;26.10;62.00;;;;;;10008826;28;20095;-71
2021/08/13 00:48:39;;;;;;;8.15;5.88;;;26.10;62.10;;;;;;9999953;28;20172;-66
2021/08/13 00:53:30;;;;;;;9.18;5.60;;;26.00;62.30;;;;;;9996939;28;20129;-66
2021/08/13 00:58:21;;;;;;;6.03;4.55;;;25.90;62.60;;;;;;10007245;28;20113;-74
2021/08/13 01:03:13;;;;;;;7.95;5.88;;;25.90;63.00;;;;;;10003149;28;20050;-72
2021/08/13 01:08:04;;;;;;;9.60;5.18;;;26.10;63.10;;;;;;10005942;28;20056;-68
2021/08/13 01:12:55;;;;;;;10.02;5.90;;;25.90;63.70;;;;;;9995039;28;20666;-70
2021/08/13 01:17:55;;;;;;;7.38;5.32;;;25.80;64.00;;;;;;9996221;28;20522;-69
2021/08/13 01:22:54;;;;;;;7.82;4.95;;;25.70;64.70;;;;;;9997284;28;20034;-68
2021/08/13 01:27:49;;;;;;;9.50;4.95;;;25.70;65.10;;;;;;10000153;28;20034;-70
2021/08/13 01:32:45;;;;;;;;;;;25.80;64.90;;;;;;10001488;28;20028;-72
2021/08/13 01:37:39;;;;;;;8.60;5.43;;;25.90;65.20;;;;;;9998041;28;20190;-70
2021/08/13 01:42:31;;;;;;;8.05;5.18;;;25.80;65.10;;;;;;9993207;28;20044;-68
2021/08/13 01:47:22;;;;;;;8.60;5.72;;;25.70;65.30;;;;;;10003682;28;20061;-72
2021/08/13 01:52:13;;;;;;;8.77;6.03;;;25.60;65.80;;;;;;10003876;28;20060;-70
2021/08/13 01:57:04;;;;;;;8.57;5.43;;;25.50;66.10;;;;;;10003174;28;20026;-66
2021/08/13 02:01:55;;;;;;;7.93;5.22;;;25.40;66.30;;;;;;9997184;28;20462;-69
2021/08/13 02:06:47;;;;;;;9.95;7.10;;;25.20;66.80;;;;;;10002422;28;20033;-71
2021/08/13 02:11:38;;;;;;;8.75;5.60;;;25.10;67.20;;;;;;9994053;28;20554;-72
2021/08/13 02:16:31;;;;;;;11.85;5.63;;;25.20;67.40;;;;;;9994139;28;20056;-69
2021/08/13 02:21:23;;;;;;;9.35;5.63;;;25.20;67.50;;;;;;9997862;28;20420;-70
2021/08/13 02:26:14;;;;;;;9.25;6.00;;;25.10;67.80;;;;;;10002354;28;20091;-69
2021/08/13 02:31:05;;;;;;;7.53;5.55;;;25.10;68.00;;;;;;9992804;28;20369;-70
2021/08/13 02:36:05;;;;;;;7.22;5.22;;;25.00;68.40;;;;;;9997778;28;20469;-72
2021/08/13 02:41:00;;;;;;;8.43;5.72;;;25.10;68.50;;;;;;9997387;28;20034;-68
2021/08/13 02:45:54;;;;;;;8.20;5.43;;;25.00;68.70;;;;;;9994435;28;20087;-68
2021/08/13 02:50:46;;;;;;;7.93;5.05;;;24.90;69.20;;;;;;9992584;28;21221;-67
2021/08/13 02:56:19;;;;;;;10.02;6.45;;;24.80;69.50;;;;;;10010764;28;20594;-68
2021/08/13 03:01:16;;;;;;;10.23;6.72;;;24.70;69.90;;;;;;9996490;28;20046;-66
2021/08/13 03:06:10;;;;;;;8.52;5.78;;;24.80;69.70;;;;;;9995678;28;20042;-69
2021/08/13 03:11:03;;;;;;;7.22;5.20;;;24.90;69.70;;;;;;9992425;28;20014;-69
2021/08/13 03:15:55;;;;;;;8.13;5.20;;;25.00;69.50;;;;;;9991799;28;20046;-72
2021/08/13 03:20:48;;;;;;;9.13;5.60;;;24.90;69.70;;;;;;9997809;28;20018;-71
2021/08/13 03:25:39;;;;;;;8.18;5.97;;;24.90;70.10;;;;;;10000898;28;20084;-71
2021/08/13 03:30:37;;;;;;;7.18;5.38;;;24.90;70.10;;;;;;9994308;28;20018;-74
2021/08/13 03:35:28;;;;;;;10.70;5.93;;;25.00;70.10;;;;;;9998139;28;20038;-73
2021/08/13 03:40:19;;;;;;;9.10;5.50;;;25.00;70.00;;;;;;10008313;28;20049;-74
2021/08/13 03:45:10;;;;;;;6.22;4.78;;;24.90;70.10;;;;;;10003380;28;20022;-68
2021/08/13 03:50:00;;;;;;;7.47;4.60;;;24.90;70.10;;;;;;9994187;28;20026;-75
2021/08/13 03:54:51;;;;;;;8.00;4.72;;;24.80;70.10;;;;;;10002569;28;20092;-73
2021/08/13 03:59:42;;;;;;;6.70;4.75;;;24.80;70.20;;;;;;9998079;28;20057;-74
2021/08/13 04:04:32;;;;;;;8.25;5.20;;;24.60;70.40;;;;;;9987314;28;20054;-73
2021/08/13 04:09:23;;;;;;;9.40;4.93;;;24.60;70.50;;;;;;9999371;28;20450;-74
2021/08/13 04:14:13;;;;;;;8.50;5.68;;;24.60;70.50;;;;;;10001595;28;20049;-72
2021/08/13 04:19:04;;;;;;;10.55;5.63;;;24.60;70.40;;;;;;9995437;28;20049;-73
2021/08/13 04:23:55;;;;;;;8.35;5.25;;;24.60;70.60;;;;;;10001083;28;20031;-74
2021/08/13 04:28:45;;;;;;;8.70;5.28;;;24.60;70.60;;;;;;10001131;28;20030;-73
2021/08/13 04:33:36;;;;;;;8.30;5.07;;;24.60;70.70;;;;;;9998282;28;20037;-72
2021/08/13 04:38:27;;;;;;;7.30;5.47;;;24.60;70.80;;;;;;9999877;28;20029;-75
2021/08/13 04:43:17;;;;;;;11.98;5.47;;;24.50;70.80;;;;;;10007199;28;20027;-71
2021/08/13 04:48:08;;;;;;;9.27;5.30;;;24.60;70.80;;;;;;10002536;28;20404;-71
2021/08/13 04:52:59;;;;;;;7.53;4.22;;;24.60;70.80;;;;;;10001364;28;20037;-74
2021/08/13 04:57:51;;;;;;;7.90;4.82;;;24.60;70.80;;;;;;9996843;28;20022;-67
2021/08/13 05:02:42;;;;;;;8.68;4.57;;;24.60;70.90;;;;;;9998953;28;20481;-69
2021/08/13 05:07:32;;;;;;;9.73;5.55;;;24.50;71.00;;;;;;10006391;28;20496;-68
2021/08/13 05:12:24;;;;;;;9.23;4.93;;;24.50;71.20;;;;;;9997017;28;20034;-67
2021/08/13 05:17:14;;;;;;;7.70;5.30;;;24.50;71.20;;;;;;10004467;28;20270;-73
2021/08/13 05:22:08;;;;;;;8.10;4.80;;;24.50;71.20;;;;;;10002556;28;20068;-69
2021/08/13 05:26:59;;;;;;;6.80;4.93;;;24.50;71.40;;;;;;10005026;28;20477;-72
2021/08/13 05:31:50;;;;;;;11.65;5.80;;;24.60;71.40;;;;;;9995989;28;20038;-68
2021/08/13 05:36:40;;;;;;;8.52;5.15;;;24.60;71.30;;;;;;9998623;28;20022;-66
2021/08/13 05:41:31;;;;;;;10.77;5.25;;;24.60;71.40;;;;;;9996486;28;20022;-71
2021/08/13 05:46:21;;;;;;;10.88;5.97;;;24.60;71.50;;;;;;9999329;28;20163;-71
2021/08/13 05:51:12;;;;;;;8.32;5.38;;;24.60;71.30;;;;;;10001468;28;20031;-74
2021/08/13 05:56:03;;;;;;;7.95;4.53;;;24.60;71.30;;;;;;10004235;28;20432;-70
2021/08/13 06:00:54;;;;;;;7.57;5.30;;;24.70;71.00;;;;;;10003554;28;20026;-69
2021/08/13 06:05:44;;;;;;;7.55;4.78;;;24.80;70.90;;;;;;9995749;28;20030;-69
2021/08/13 06:10:35;;;;;;;6.70;4.03;;;24.90;70.70;;;;;;9996834;28;20014;-68
2021/08/13 06:15:26;;;;;;;10.20;5.03;;;25.00;71.30;;;;;;9999643;28;20046;-71
2021/08/13 06:20:19;;;;;;;6.85;4.60;;;25.00;70.50;;;;;;10002024;28;20061;-68
2021/08/13 06:25:10;;;;;;;7.45;4.35;;;25.00;70.20;;;;;;9997436;28;20042;-71
2021/08/13 06:30:00;;;;;;;6.22;4.22;;;25.10;70.10;;;;;;10001096;28;20133;-69
2021/08/13 06:34:51;;;;;;;5.85;4.45;;;25.10;70.00;;;;;;9997402;28;20544;-71
2021/08/13 06:39:42;;;;;;;6.90;4.43;;;25.20;69.80;;;;;;10002291;28;20530;-73
2021/08/13 06:44:32;;;;;;;6.30;3.85;;;25.30;69.60;;;;;;10006909;28;20033;-61
2021/08/13 06:49:23;;;;;;;8.02;3.80;;;25.50;69.10;;;;;;10006666;28;20034;-66
2021/08/13 06:54:14;;;;;;;6.85;4.63;;;25.60;68.80;;;;;;10009447;28;20381;-68
2021/08/13 06:59:05;;;;;;;8.52;3.85;;;25.70;68.60;;;;;;10005456;28;20037;-69
2021/08/13 07:03:55;;;;;;;5.57;3.28;;;25.60;68.50;;;;;;10021910;28;20026;-75
2021/08/13 07:08:46;;;;;;;7.72;4.10;;;25.80;68.30;;;;;;10014875;28;20033;-68
2021/08/13 07:13:44;;;;;;;4.85;3.35;;;25.80;68.40;;;;;;10130656;27;20390;-65
2021/08/13 07:18:35;;;;;;;8.65;3.53;;;25.90;67.90;;;;;;10132449;28;20021;-67
2021/08/13 07:23:26;;;;;;;7.30;3.35;;;25.90;67.50;;;;;;10134396;28;20032;-64
2021/08/13 07:28:17;;;;;;;6.70;3.47;;;25.90;67.40;;;;;;10131011;28;20108;-67
2021/08/13 07:33:08;;;;;;;8.38;3.53;;;26.00;67.30;;;;;;10130534;28;20048;-64
2021/08/13 07:37:58;;;;;;;7.57;3.85;;;26.10;67.00;;;;;;10134957;28;20016;-64
2021/08/13 07:42:50;;;;;;;4.78;2.60;;;26.30;66.70;;;;;;10131110;28;20037;-64
2021/08/13 07:47:41;;;;;;;6.60;2.90;;;26.50;66.30;;;;;;10133273;28;20495;-71
2021/08/13 07:52:31;;;;;;;5.47;3.25;;;26.50;66.10;;;;;;10133325;28;20052;-65
2021/08/13 07:57:22;;;;;;;7.35;3.63;;;26.50;66.00;;;;;;10142111;28;20035;-64
2021/08/13 08:02:13;;;;;;;10.20;3.40;;;26.30;66.40;;;;;;10136638;28;20032;-65
2021/08/13 08:07:04;;;;;;;5.72;2.70;;;26.30;66.10;;;;;;10129765;28;20306;-60
2021/08/13 08:11:55;;;;;;;6.32;2.90;;;26.60;65.90;;;;;;10161049;28;20044;-62
2021/08/13 08:16:45;;;;;;;6.07;3.78;;;26.70;65.60;;;;;;10172737;28;20017;-67
2021/08/13 08:21:36;;;;;;;6.13;2.92;;;26.80;66.20;;;;;;10163591;28;20024;-69
2021/08/13 08:26:27;;;;;;;6.38;3.53;;;26.80;65.50;;;;;;10147969;28;20031;-72
2021/08/13 08:31:18;;;;;;;6.45;4.20;;;27.00;65.20;;;;;;10135276;28;20053;-68
2021/08/13 08:36:10;;;;;;;6.53;3.35;;;27.20;65.00;;;;;;10147997;28;20036;-75
2021/08/13 08:41:05;;;;;;;12.00;3.95;;;27.10;65.00;;;;;;10149984;28;20454;-67
2021/08/13 08:45:56;;;;;;;8.65;3.63;;;27.00;65.00;;;;;;10147215;28;20400;-67
2021/08/13 08:50:47;;;;;;;8.77;4.63;;;27.00;65.10;;;;;;10142381;28;20043;-76
2021/08/13 08:55:39;;;;;;;5.00;3.30;;;27.00;65.10;;;;;;10149221;28;20186;-68
2021/08/13 09:00:29;;;;;;;7.38;3.75;;;27.10;65.10;;;;;;10155592;28;20096;-70
2021/08/13 09:05:20;;;;;;;7.20;4.10;;;27.40;64.60;;;;;;10146928;28;20108;-71
2021/08/13 09:10:12;;;;;;;6.10;3.85;;;27.60;64.20;;;;;;10144055;28;20496;-73
2021/08/13 09:15:03;;;;;;;8.88;4.20;;;27.70;64.30;;;;;;10162108;28;20038;-70
2021/08/13 09:19:53;;;;;;;7.00;4.03;;;27.70;64.30;;;;;;10154865;28;20039;-73
2021/08/13 09:24:50;;;;;;;5.60;3.20;;;27.80;64.30;;;;;;10156949;28;20058;-70
2021/08/13 09:29:40;;;;;;;7.05;3.20;;;27.90;64.20;;;;;;10147311;28;20032;-63
2021/08/13 09:34:32;;;;;;;6.60;3.78;;;28.00;64.10;;;;;;10146889;28;20024;-63
2021/08/13 09:39:30;;;;;;;5.75;3.60;;;28.20;63.90;;;;;;10146208;28;20024;-68
2021/08/13 09:44:32;;;;;;;5.40;3.60;;;28.10;63.90;;;;;;10142813;28;20252;-64
2021/08/13 09:49:23;;;;;;;9.23;3.83;;;28.10;63.80;;;;;;10146974;28;20021;-70
2021/08/13 09:54:14;;;;;;;5.93;3.90;;;28.30;63.70;;;;;;10146437;28;20043;-70
2021/08/13 09:59:18;;;;;;;5.57;3.58;;;28.40;63.60;;;;;;10143540;28;20025;-62
2021/08/13 10:04:09;;;;;;;6.60;3.70;;;28.60;63.30;;;;;;10139347;28;20135;-63
2021/08/13 10:09:00;;;;;;;5.53;3.38;;;28.60;63.20;;;;;;10141946;28;20796;-63
2021/08/13 10:13:51;;;;;;;6.93;4.22;;;28.50;63.30;;;;;;10140002;28;20040;-70
2021/08/13 10:18:41;;;;;;;7.60;3.92;;;28.60;63.10;;;;;;10130562;28;20032;-59
2021/08/13 10:23:33;;;;;;;7.13;3.67;;;28.80;62.80;;;;;;10133720;28;20021;-59
2021/08/13 10:28:23;;;;;;;6.43;3.80;;;28.80;62.80;;;;;;10139158;28;20595;-60
2021/08/13 10:33:15;;;;;;;6.63;2.85;;;29.00;62.40;;;;;;10142510;28;20098;-62
2021/08/13 10:38:08;;;;;;;6.32;3.08;;;29.20;62.30;;;;;;10136419;28;20021;-60
2021/08/13 10:43:00;;;;;;;6.78;2.80;;;29.30;62.20;;;;;;10144720;28;20027;-60
2021/08/13 10:48:09;;;;;;;9.43;4.35;;;29.30;62.10;;;;;;10134507;28;20036;-72
2021/08/13 10:52:59;;;;;;;5.18;3.03;;;29.50;61.90;;;;;;10138041;28;20047;-60
2021/08/13 10:57:50;;;;;;;7.57;3.67;;;29.50;61.80;;;;;;10142832;28;20049;-63
2021/08/13 11:02:41;;;;;;;7.95;3.17;;;29.70;61.70;;;;;;10134353;28;20036;-62
2021/08/13 11:08:00;;;;;;;4.78;3.55;;;29.80;61.60;;;;;;10138376;28;20025;-64
2021/08/13 11:13:12;;;;;;;6.93;3.95;;;30.00;61.30;;;;;;10146736;28;20048;-71
2021/08/13 11:18:32;;;;;;;5.28;3.78;;;30.10;61.00;;;;;;10138887;28;20044;-65
2021/08/13 11:23:22;;;;;;;10.00;4.20;;;30.20;60.80;;;;;;10140344;28;20036;-60
2021/08/13 11:28:22;;;;;;;7.07;3.83;;;30.50;60.50;;;;;;10141631;28;20021;-64
2021/08/13 11:33:25;;;;;;;6.47;4.25;;;30.70;59.60;;;;;;10142453;28;20032;-77
2021/08/13 11:38:44;;;;;;;8.25;4.28;;;30.70;59.10;;;;;;10142260;28;20044;-61
2021/08/13 11:43:42;;;;;;;6.50;3.78;;;30.70;59.40;;;;;;10137140;28;21326;-64
2021/08/13 11:48:33;;;;;;;7.63;4.63;;;31.10;59.00;;;;;;10142283;28;20052;-61
2021/08/13 11:53:35;;;;;;;7.65;3.78;;;31.10;58.60;;;;;;10136854;28;20544;-64
2021/08/13 11:58:25;;;;;;;6.70;3.85;;;30.90;58.70;;;;;;10143402;28;20017;-63
2021/08/13 12:03:23;;;;;;;10.02;4.53;;;30.50;59.00;;;;;;10150547;28;20300;-63
2021/08/13 12:08:16;;;;;;;5.88;4.35;;;30.50;58.60;;;;;;10151855;28;20030;-62
2021/08/13 12:13:08;;;;;;;5.53;4.37;;;30.70;57.90;;;;;;10147523;28;20090;-67
2021/08/13 12:18:00;;;;;;;7.70;4.15;;;31.00;57.40;;;;;;10138514;28;20108;-62
2021/08/13 12:23:00;;;;;;;7.88;4.80;;;31.20;57.00;;;;;;10151754;28;20520;-65
2021/08/13 12:27:51;;;;;;;12.40;4.32;;;30.90;57.20;;;;;;10140117;28;20051;-60
2021/08/13 12:32:43;;;;;;;8.77;4.13;;;31.60;56.80;;;;;;10140981;28;20035;-61
2021/08/13 12:37:35;;;;;;;5.70;3.88;;;32.30;56.20;;;;;;10151110;28;20028;-63
2021/08/13 12:42:27;;;;;;;5.20;4.05;;;33.00;55.70;;;;;;10139350;28;20574;-60
2021/08/13 12:47:18;;;;;;;7.57;4.23;;;34.00;55.00;;;;;;10136586;28;20052;-64
2021/08/13 12:52:19;;;;;;;6.80;4.60;;;34.20;54.50;;;;;;10149179;28;20063;-63
2021/08/13 12:57:12;;;;;;;8.70;5.37;;;34.00;54.20;;;;;;10145782;28;20039;-65
2021/08/13 13:02:04;;;;;;;7.68;5.03;;;33.20;54.50;;;;;;10142434;28;20032;-63
2021/08/13 13:06:55;;;;;;;6.07;4.28;;;32.30;54.70;;;;;;10142640;28;20051;-64
2021/08/13 13:11:45;;;;;;;9.68;4.57;;;32.00;53.80;;;;;;10139612;28;20533;-63
2021/08/13 13:16:39;;;;;;;6.22;5.07;;;33.00;52.90;;;;;;10125709;28;20212;-62
2021/08/13 13:21:29;;;;;;;6.38;4.13;;;34.40;50.80;;;;;;10137952;28;20050;-66
2021/08/13 13:26:20;;;;;;;7.68;4.60;;;33.90;49.80;;;;;;10143617;28;20468;-65
2021/08/13 13:31:14;;;;;;;9.63;5.13;;;35.30;48.80;;;;;;10136102;28;20048;-61
2021/08/13 13:36:06;;;;;;;6.00;4.35;;;36.60;46.60;;;;;;10140460;28;20021;-61
2021/08/13 13:40:57;;;;;;;;;;;37.10;45.20;;;;;;10145564;28;20094;-64
2021/08/13 13:45:50;;;;;;;6.88;4.35;;;38.40;42.70;;;;;;10136162;28;19994;-65
2021/08/13 13:50:41;;;;;;;5.35;4.80;;;39.50;41.90;;;;;;10137166;28;20044;-63
2021/08/13 13:55:32;;;;;;;5.05;3.83;;;39.20;40.90;;;;;;10136648;28;20031;-71
2021/08/13 14:00:24;;;;;;;7.43;4.03;;;40.00;39.50;;;;;;10139239;28;20025;-71
2021/08/13 14:05:15;;;;;;;6.95;3.67;;;40.40;38.30;;;;;;10137691;28;20028;-71
2021/08/13 14:10:08;;;;;;;5.00;3.67;;;40.60;37.30;;;;;;10141980;28;20047;-74
2021/08/13 14:14:59;;;;;;;5.47;3.40;;;40.30;36.90;;;;;;10141985;28;20040;-72
2021/08/13 14:19:50;;;;;;;5.53;4.13;;;40.90;36.50;;;;;;10137679;28;20055;-66
2021/08/13 14:24:41;;;;;;;5.78;3.80;;;40.40;36.40;;;;;;10134188;28;20020;-64
2021/08/13 14:29:31;;;;;;;6.82;3.90;;;40.10;36.30;;;;;;10142272;28;20032;-64
2021/08/13 14:34:22;;;;;;;6.07;3.72;;;39.80;36.10;;;;;;10141385;28;20441;-62
2021/08/13 14:39:14;;;;;;;7.72;4.15;;;39.50;36.20;;;;;;10140391;28;20344;-72
2021/08/13 14:44:05;;;;;;;5.72;4.07;;;39.00;35.90;;;;;;10142102;28;20558;-65
2021/08/13 14:48:56;;;;;;;5.82;4.10;;;38.70;36.00;;;;;;10146909;28;20110;-69
2021/08/13 14:53:46;;;;;;;6.68;3.25;;;38.70;35.80;;;;;;10140438;28;20051;-63
2021/08/13 14:58:37;;;;;;;4.95;3.50;;;38.30;35.50;;;;;;10139903;28;20105;-68
2021/08/13 15:03:28;;;;;;;8.80;4.78;;;38.40;35.40;;;;;;10137218;28;20340;-67
2021/08/13 15:08:19;;;;;;;8.55;4.20;;;39.10;34.80;;;;;;10143771;28;20033;-61
2021/08/13 15:13:09;;;;;;;4.00;3.60;;;38.90;35.00;;;;;;10142039;28;20057;-61
2021/08/13 15:18:00;;;;;;;8.57;4.40;;;37.20;36.40;;;;;;10143620;28;20115;-60
2021/08/13 15:23:00;;;;;;;7.45;3.88;;;38.00;35.50;;;;;;10136469;28;20606;-61
2021/08/13 15:27:52;;;;;;;6.03;4.65;;;38.30;35.00;;;;;;10126929;28;20033;-64
2021/08/13 15:32:47;;;;;;;6.93;3.70;;;38.60;35.10;;;;;;10149291;28;20040;-58
2021/08/13 15:37:38;;;;;;;6.57;4.30;;;38.80;35.10;;;;;;10146776;28;20039;-61
2021/08/13 15:42:28;;;;;;;;;;;38.90;35.10;;;;;;10148732;28;20067;-68
2021/08/13 15:47:19;;;;;;;7.60;4.27;;;38.70;35.20;;;;;;10146157;28;19913;-65
2021/08/13 15:52:10;;;;;;;;;;;39.00;35.00;;;;;;10142266;28;20037;-58
2021/08/13 15:57:01;;;;;;;5.60;3.90;;;39.70;34.20;;;;;;10145132;28;19920;-68
2021/08/13 16:01:51;;;;;;;;;;;39.80;33.90;;;;;;10152064;28;20037;-62
2021/08/13 16:06:44;;;;;;;5.03;3.87;;;39.50;33.60;;;;;;10143180;28;20374;-59
2021/08/13 16:11:36;;;;;;;5.85;4.60;;;39.80;33.20;;;;;;10142158;28;20300;-61
2021/08/13 16:16:27;;;;;;;5.22;3.53;;;40.50;32.20;;;;;;10146942;28;20039;-59
2021/08/13 16:21:18;;;;;;;4.63;3.35;;;41.60;31.30;;;;;;10147087;28;20328;-59
2021/08/13 16:26:08;;;;;;;4.43;3.58;;;41.70;30.90;;;;;;10144272;28;20111;-57
2021/08/13 16:31:00;;;;;;;4.32;3.88;;;41.70;30.60;;;;;;10141264;28;20032;-59
2021/08/13 16:35:50;;;;;;;6.45;4.18;;;41.90;30.20;;;;;;10145529;28;20158;-61
2021/08/13 16:40:41;;;;;;;5.07;3.55;;;42.40;29.70;;;;;;10153797;28;20115;-61
2021/08/13 16:45:32;;;;;;;8.50;3.90;;;41.90;29.90;;;;;;10150635;28;20550;-61
2021/08/13 16:50:23;;;;;;;6.63;3.85;;;42.20;29.50;;;;;;10145848;28;20028;-60
2021/08/13 16:55:14;;;;;;;5.05;3.45;;;42.20;29.70;;;;;;10146097;28;20036;-61
2021/08/13 17:00:08;;;;;;;5.28;3.38;;;41.90;29.70;;;;;;10138538;28;20115;-61
2021/08/13 17:04:59;;;;;;;4.47;3.38;;;41.30;29.80;;;;;;10132078;28;20056;-59
2021/08/13 17:09:50;;;;;;;3.92;3.55;;;41.10;30.00;;;;;;10144136;28;20386;-60
2021/08/13 17:14:40;;;;;;;;;;;41.10;29.90;;;;;;10138948;28;20028;-65
2021/08/13 17:19:31;;;;;;;6.20;4.17;;;41.90;29.00;;;;;;10146421;28;19935;-62
2021/08/13 17:24:21;;;;;;;;;;;41.30;29.30;;;;;;10142971;28;20036;-59
2021/08/13 17:29:12;;;;;;;4.78;4.13;;;41.20;29.40;;;;;;10143687;28;19931;-61
2021/08/13 17:34:03;;;;;;;3.73;3.07;;;39.70;30.50;;;;;;10140306;28;20078;-57
2021/08/13 17:38:53;;;;;;;5.55;3.67;;;38.30;31.70;;;;;;10139632;28;20023;-59
2021/08/13 17:43:45;;;;;;;4.78;3.83;;;35.40;34.90;;;;;;10144432;28;20351;-63
2021/08/13 17:48:35;;;;;;;6.10;3.75;;;33.60;36.90;;;;;;10139796;28;20138;-62
2021/08/13 17:53:26;;;;;;;6.60;3.78;;;32.90;38.10;;;;;;10141117;28;20467;-59
2021/08/13 17:58:19;;;;;;;7.50;3.80;;;32.50;38.80;;;;;;10141047;28;20162;-64
2021/08/13 18:03:09;;;;;;;5.90;3.90;;;32.20;39.30;;;;;;10141442;28;23519;-60
2021/08/13 18:08:00;;;;;;;6.72;4.05;;;32.20;39.60;;;;;;10137568;28;20016;-59
2021/08/13 18:12:51;;;;;;;5.43;3.97;;;31.80;40.40;;;;;;10139421;28;20135;-58
2021/08/13 18:17:41;;;;;;;5.35;4.13;;;31.70;40.80;;;;;;10133397;28;20093;-58
2021/08/13 18:22:32;;;;;;;7.55;4.28;;;31.70;42.10;;;;;;10141587;28;20040;-59
2021/08/13 18:27:23;;;;;;;5.70;4.40;;;31.50;41.80;;;;;;10143043;28;20059;-60
2021/08/13 18:32:14;;;;;;;5.63;3.92;;;31.20;42.50;;;;;;10138349;28;20072;-62
2021/08/13 18:37:05;;;;;;;5.55;3.80;;;30.90;43.20;;;;;;10140283;28;20578;-59
2021/08/13 18:41:55;;;;;;;7.15;4.03;;;31.00;43.30;;;;;;10144382;28;20074;-64
2021/08/13 18:46:46;;;;;;;7.47;4.30;;;30.90;43.60;;;;;;10143265;28;20108;-60
2021/08/13 18:51:37;;;;;;;6.53;4.10;;;30.80;43.80;;;;;;10141582;28;20126;-61
2021/08/13 18:56:27;;;;;;;5.90;4.20;;;30.70;44.30;;;;;;10125628;28;20421;-66
2021/08/13 19:01:19;;;;;;;5.38;4.15;;;30.70;44.50;;;;;;10142593;28;20036;-60
2021/08/13 19:06:10;;;;;;;5.70;4.18;;;30.50;45.50;;;;;;10149035;28;20028;-59
2021/08/13 19:11:00;;;;;;;5.90;3.45;;;30.40;45.30;;;;;;10139024;28;20434;-59
2021/08/13 19:15:51;;;;;;;5.15;4.38;;;30.30;45.20;;;;;;10140073;28;20501;-59
2021/08/13 19:20:59;;;;;;;9.75;4.40;;;30.30;45.80;;;;;;10141496;28;20567;-62
2021/08/13 19:25:50;;;;;;;8.05;3.65;;;30.30;47.00;;;;;;10140377;28;20021;-62
2021/08/13 19:30:41;;;;;;;5.45;4.15;;;30.30;46.10;;;;;;10144966;28;20032;-73
2021/08/13 19:35:31;;;;;;;5.38;4.00;;;30.40;46.10;;;;;;10142111;28;20525;-73
2021/08/13 19:40:22;;;;;;;5.13;4.00;;;30.30;46.40;;;;;;10128783;28;20035;-63
2021/08/13 19:45:13;;;;;;;11.07;4.38;;;30.10;46.70;;;;;;10140561;28;20033;-63
2021/08/13 19:50:05;;;;;;;5.47;4.15;;;29.90;47.10;;;;;;10143895;28;20032;-75
2021/08/13 19:54:56;;;;;;;7.07;4.95;;;29.70;47.40;;;;;;10145109;28;20125;-73
2021/08/13 19:59:46;;;;;;;6.20;4.32;;;29.70;47.60;;;;;;10143231;28;20088;-63
2021/08/13 20:04:37;;;;;;;9.18;4.47;;;29.50;47.60;;;;;;10136856;28;20019;-60
2021/08/13 20:09:28;;;;;;;6.40;4.13;;;29.60;47.90;;;;;;10138126;28;20036;-63
2021/08/13 20:14:19;;;;;;;7.18;4.28;;;29.70;47.90;;;;;;10133071;28;20083;-59
2021/08/13 20:19:09;;;;;;;7.32;3.40;;;29.70;47.80;;;;;;10119691;28;20451;-65
2021/08/13 20:24:00;;;;;;;7.57;3.50;;;29.50;47.90;;;;;;10140286;28;20039;-62
2021/08/13 20:28:51;;;;;;;5.95;3.72;;;29.50;47.90;;;;;;10141390;28;20024;-62
2021/08/13 20:33:45;;;;;;;7.03;4.07;;;29.50;48.00;;;;;;10145488;28;20035;-66
2021/08/13 20:38:36;;;;;;;4.85;3.33;;;29.50;48.00;;;;;;10147229;28;20031;-63
2021/08/13 20:43:27;;;;;;;6.18;3.45;;;29.40;48.10;;;;;;10145616;28;20739;-64
2021/08/13 20:48:18;;;;;;;6.47;3.88;;;29.30;48.20;;;;;;10151779;28;20086;-64
2021/08/13 20:53:08;;;;;;;6.63;3.88;;;29.30;48.20;;;;;;10145825;28;20097;-61
2021/08/13 20:57:59;;;;;;;6.47;3.85;;;29.10;48.30;;;;;;10142506;28;20024;-60
2021/08/13 21:02:50;;;;;;;6.43;4.30;;;29.20;48.30;;;;;;10149074;28;20028;-65
2021/08/13 21:07:41;;;;;;;5.68;3.45;;;28.90;48.70;;;;;;10144668;28;20104;-58
2021/08/13 21:12:32;;;;;;;6.60;4.05;;;28.60;49.10;;;;;;10156208;28;20129;-59
2021/08/13 21:17:23;;;;;;;6.90;4.40;;;28.50;49.10;;;;;;10153774;28;20350;-61
2021/08/13 21:22:15;;;;;;;5.15;3.80;;;28.60;49.10;;;;;;10146845;28;20020;-65
2021/08/13 21:27:06;;;;;;;5.78;3.70;;;28.60;49.00;;;;;;10145275;28;20024;-67
2021/08/13 21:31:58;;;;;;;5.53;3.22;;;28.80;48.80;;;;;;10152053;28;20043;-63
2021/08/13 21:36:49;;;;;;;4.45;3.55;;;28.80;48.80;;;;;;10141562;28;20773;-71
2021/08/13 21:41:40;;;;;;;7.90;4.57;;;28.60;49.10;;;;;;10151412;28;20025;-60
2021/08/13 21:46:30;;;;;;;8.90;3.80;;;28.50;49.30;;;;;;10147578;28;20054;-58
2021/08/13 21:51:21;;;;;;;7.53;4.03;;;28.30;49.40;;;;;;10141416;28;20048;-61
2021/08/13 21:56:12;;;;;;;5.82;3.30;;;28.10;49.80;;;;;;10137074;28;20056;-61
2021/08/13 22:01:03;;;;;;;5.85;3.65;;;28.10;49.80;;;;;;10146114;28;20247;-65
2021/08/13 22:05:53;;;;;;;6.10;4.95;;;28.00;50.00;;;;;;10144015;28;20089;-60
2021/08/13 22:10:44;;;;;;;5.68;4.03;;;27.80;50.40;;;;;;10159428;28;20137;-60
2021/08/13 22:15:35;;;;;;;5.97;3.95;;;27.80;50.60;;;;;;10124229;28;20024;-65
2021/08/13 22:20:27;;;;;;;6.70;4.00;;;27.70;51.20;;;;;;10143967;28;20028;-58
2021/08/13 22:25:18;;;;;;;9.48;3.88;;;27.60;51.60;;;;;;10146814;28;20139;-64
2021/08/13 22:30:12;;;;;;;7.47;4.38;;;27.40;52.00;;;;;;10144578;28;20040;-59
2021/08/13 22:35:07;;;;;;;8.38;4.68;;;27.40;52.50;;;;;;10136579;28;20019;-65
2021/08/13 22:39:57;;;;;;;6.28;3.80;;;27.40;52.50;;;;;;10143578;28;20029;-65
2021/08/13 22:44:48;;;;;;;7.75;3.97;;;27.20;52.80;;;;;;10141882;28;20021;-59
2021/08/13 22:49:39;;;;;;;6.40;4.10;;;27.20;52.90;;;;;;10135530;28;20062;-67
2021/08/13 22:54:30;;;;;;;9.75;4.97;;;27.10;53.00;;;;;;10143469;28;20357;-72
2021/08/13 22:59:20;;;;;;;5.95;4.07;;;27.10;53.40;;;;;;10138803;28;20100;-60
2021/08/13 23:04:11;;;;;;;7.00;4.38;;;27.20;53.30;;;;;;10144338;28;20506;-59
2021/08/13 23:09:04;;;;;;;5.10;3.65;;;27.10;53.80;;;;;;10140324;28;20039;-58
2021/08/13 23:13:55;;;;;;;7.88;3.70;;;27.00;53.70;;;;;;10139286;28;20049;-58
2021/08/13 23:18:46;;;;;;;5.05;3.53;;;27.10;53.90;;;;;;10134204;28;20427;-59
2021/08/13 23:23:36;;;;;;;6.60;3.88;;;27.10;54.00;;;;;;10135716;28;20474;-60
2021/08/13 23:28:27;;;;;;;7.05;4.70;;;27.00;54.10;;;;;;10139873;28;20021;-58
2021/08/13 23:33:18;;;;;;;7.15;4.28;;;26.80;54.60;;;;;;10134120;28;20123;-60
2021/08/13 23:38:08;;;;;;;5.85;4.18;;;26.90;55.00;;;;;;10136528;28;20104;-56
2021/08/13 23:42:59;;;;;;;9.23;4.35;;;26.70;55.10;;;;;;10143463;28;20032;-57
2021/08/13 23:47:50;;;;;;;5.35;3.88;;;26.70;55.40;;;;;;10146803;28;20051;-58
2021/08/13 23:52:41;;;;;;;6.88;4.47;;;26.70;55.70;;;;;;10135635;28;20041;-58
2021/08/13 23:57:31;;;;;;;6.57;4.78;;;26.70;55.50;;;;;;10156090;28;20434;-61
